createdAt,value
2018-05-29T00:00:19.273Z,19.20
2018-05-29T00:02:48.141Z,19.40
2018-05-29T00:05:16.582Z,19.40
2018-05-29T00:07:45.798Z,19.20
2018-05-29T00:10:14.220Z,19.20
2018-05-29T00:12:42.686Z,19.10
2018-05-29T00:15:11.146Z,19.10
2018-05-29T00:17:39.590Z,19.00
2018-05-29T00:20:08.057Z,19.10
2018-05-29T00:22:36.478Z,19.10
2018-05-29T00:25:04.555Z,19.10
2018-05-29T00:27:32.987Z,19.10
2018-05-29T00:30:01.437Z,19.10
2018-05-29T00:32:29.903Z,19.20
2018-05-29T00:34:58.401Z,19.10
2018-05-29T00:37:26.834Z,19.10
2018-05-29T00:39:55.295Z,19.00
2018-05-29T00:42:24.503Z,19.20
2018-05-29T00:44:53.991Z,19.10
2018-05-29T00:47:23.202Z,19.20
2018-05-29T00:49:52.513Z,19.10
2018-05-29T00:52:20.969Z,19.10
2018-05-29T00:55:01.492Z,19.10
2018-05-29T00:57:29.935Z,19.10
2018-05-29T00:59:58.389Z,19.10
2018-05-29T01:02:27.608Z,19.00
2018-05-29T01:04:56.206Z,19.00
2018-05-29T01:07:24.653Z,18.90
2018-05-29T01:09:53.848Z,18.90
2018-05-29T01:12:23.048Z,18.70
2018-05-29T01:14:52.378Z,18.70
2018-05-29T01:17:20.990Z,18.70
2018-05-29T01:19:49.856Z,18.70
2018-05-29T01:22:18.301Z,18.70
2018-05-29T01:24:48.207Z,18.80
2018-05-29T01:27:17.401Z,18.80
2018-05-29T01:29:46.733Z,18.70
2018-05-29T01:32:15.191Z,18.70
2018-05-29T01:34:43.603Z,18.50
2018-05-29T01:37:12.045Z,18.50
2018-05-29T01:39:41.369Z,18.40
2018-05-29T01:42:09.796Z,18.40
2018-05-29T01:44:38.269Z,18.40
2018-05-29T01:47:06.708Z,18.40
2018-05-29T01:49:35.404Z,18.40
2018-05-29T01:52:03.824Z,18.30
2018-05-29T01:54:32.257Z,18.30
2018-05-29T01:57:00.780Z,18.30
2018-05-29T01:59:29.412Z,18.30
2018-05-29T02:01:57.973Z,18.30
2018-05-29T02:04:26.446Z,18.30
2018-05-29T02:06:55.102Z,18.30
2018-05-29T02:09:23.568Z,18.30
2018-05-29T02:11:52.650Z,18.10
2018-05-29T02:14:21.160Z,18.20
2018-05-29T02:16:49.637Z,18.00
2018-05-29T02:19:18.119Z,17.80
2018-05-29T02:21:46.789Z,17.90
2018-05-29T02:24:15.217Z,18.00
2018-05-29T02:26:43.660Z,18.00
2018-05-29T02:29:12.089Z,18.10
2018-05-29T02:31:40.610Z,18.00
2018-05-29T02:34:09.060Z,18.00
2018-05-29T02:36:37.540Z,18.00
2018-05-29T02:39:05.314Z,18.10
2018-05-29T02:41:33.813Z,18.00
2018-05-29T02:44:02.247Z,18.00
2018-05-29T02:46:30.789Z,18.00
2018-05-29T02:49:00.005Z,17.90
2018-05-29T02:51:28.493Z,17.90
2018-05-29T02:53:56.953Z,17.90
2018-05-29T02:56:26.461Z,18.00
2018-05-29T02:58:55.860Z,18.00
2018-05-29T03:01:25.127Z,18.10
2018-05-29T03:03:53.556Z,18.10
2018-05-29T03:06:22.095Z,18.10
2018-05-29T03:08:50.535Z,18.00
2018-05-29T03:11:19.271Z,18.00
2018-05-29T03:13:48.526Z,17.90
2018-05-29T03:16:17.020Z,17.90
2018-05-29T03:18:45.464Z,18.00
2018-05-29T03:21:13.905Z,18.00
2018-05-29T03:23:43.128Z,18.00
2018-05-29T03:26:11.919Z,18.00
2018-05-29T03:28:40.359Z,18.00
2018-05-29T03:31:09.618Z,17.90
2018-05-29T03:33:38.080Z,17.90
2018-05-29T03:36:06.524Z,17.90
2018-05-29T03:38:35.720Z,17.60
2018-05-29T03:41:04.995Z,17.60
2018-05-29T03:43:33.432Z,17.60
2018-05-29T03:46:01.857Z,17.70
2018-05-29T03:48:30.341Z,17.60
2018-05-29T03:50:58.777Z,17.70
2018-05-29T03:53:27.205Z,17.80
2018-05-29T03:55:56.436Z,17.60
2018-05-29T03:58:24.884Z,17.60
2018-05-29T04:00:54.232Z,17.60
2018-05-29T04:03:23.426Z,17.60
2018-05-29T04:05:51.954Z,17.70
2018-05-29T04:08:20.381Z,17.60
2018-05-29T04:10:49.429Z,17.60
2018-05-29T04:13:18.640Z,17.80
2018-05-29T04:15:47.945Z,17.90
2018-05-29T04:18:16.552Z,17.80
2018-05-29T04:20:45.009Z,18.00
2018-05-29T04:23:13.456Z,18.10
2018-05-29T04:25:41.924Z,18.30
2018-05-29T04:28:10.401Z,18.40
2018-05-29T04:30:38.847Z,18.50
2018-05-29T04:33:07.327Z,18.50
2018-05-29T04:35:35.751Z,18.60
2018-05-29T04:38:04.226Z,18.60
2018-05-29T04:40:32.688Z,18.50
2018-05-29T04:43:01.208Z,18.50
2018-05-29T04:45:30.480Z,18.50
2018-05-29T04:47:58.936Z,18.40
2018-05-29T04:50:27.400Z,18.50
2018-05-29T04:52:55.839Z,18.50
2018-05-29T04:55:25.171Z,18.50
2018-05-29T04:57:53.628Z,18.50
2018-05-29T05:00:22.191Z,18.50
2018-05-29T05:02:51.391Z,18.50
2018-05-29T05:05:20.754Z,18.50
2018-05-29T05:07:49.232Z,18.40
2018-05-29T05:10:17.717Z,18.40
2018-05-29T05:12:46.175Z,18.40
2018-05-29T05:15:14.637Z,18.50
2018-05-29T05:17:43.734Z,18.60
2018-05-29T05:20:12.948Z,18.60
2018-05-29T05:22:42.317Z,18.40
2018-05-29T05:25:10.748Z,18.40
2018-05-29T05:27:39.226Z,18.30
2018-05-29T05:30:07.716Z,18.30
2018-05-29T05:32:36.328Z,18.20
2018-05-29T05:35:05.542Z,18.20
2018-05-29T05:37:34.020Z,18.20
2018-05-29T05:40:02.511Z,18.20
2018-05-29T05:42:30.956Z,18.20
2018-05-29T05:45:00.179Z,18.30
2018-05-29T05:47:28.636Z,18.30
2018-05-29T05:49:57.842Z,18.50
2018-05-29T05:52:28.703Z,18.60
2018-05-29T05:54:57.190Z,18.50
2018-05-29T05:57:25.669Z,18.60
2018-05-29T05:59:54.117Z,18.60
2018-05-29T06:02:22.549Z,18.60
2018-05-29T06:04:50.987Z,18.60
2018-05-29T06:07:19.488Z,18.50
2018-05-29T06:09:48.625Z,18.50
2018-05-29T06:12:18.681Z,18.80
2018-05-29T06:14:47.123Z,18.80
2018-05-29T06:17:17.009Z,18.80
2018-05-29T06:19:45.456Z,18.80
2018-05-29T06:22:13.980Z,18.80
2018-05-29T06:24:43.320Z,18.70
2018-05-29T06:27:11.759Z,18.70
2018-05-29T06:29:40.213Z,18.80
2018-05-29T06:32:08.665Z,18.80
2018-05-29T06:34:37.113Z,18.90
2018-05-29T06:37:06.320Z,19.00
2018-05-29T06:39:35.525Z,18.90
2018-05-29T06:42:03.975Z,18.90
2018-05-29T06:44:32.640Z,19.10
2018-05-29T06:47:01.090Z,19.10
2018-05-29T06:49:29.756Z,19.20
2018-05-29T06:51:58.211Z,19.10
2018-05-29T06:54:27.101Z,19.10
2018-05-29T06:56:56.330Z,19.10
2018-05-29T06:59:25.013Z,19.00
2018-05-29T07:01:53.593Z,19.10
2018-05-29T07:04:22.039Z,19.20
2018-05-29T07:06:51.235Z,19.30
2018-05-29T07:09:29.816Z,19.20
2018-05-29T07:11:59.021Z,19.30
2018-05-29T07:14:27.439Z,19.30
2018-05-29T07:16:56.661Z,19.40
2018-05-29T07:19:25.146Z,19.40
2018-05-29T07:21:53.563Z,19.50
2018-05-29T07:24:22.008Z,19.50
2018-05-29T07:26:50.444Z,19.60
2018-05-29T07:29:19.879Z,19.90
2018-05-29T07:31:48.328Z,19.90
2018-05-29T07:34:18.525Z,19.80
2018-05-29T07:36:47.709Z,19.80
2018-05-29T07:39:16.155Z,19.90
2018-05-29T07:41:44.601Z,20.00
2018-05-29T07:44:14.843Z,20.00
2018-05-29T07:46:42.971Z,20.00
2018-05-29T07:49:11.435Z,19.90
2018-05-29T07:51:39.905Z,19.90
2018-05-29T07:54:10.163Z,19.90
2018-05-29T07:56:39.393Z,20.00
2018-05-29T07:59:07.825Z,20.00
2018-05-29T08:01:36.279Z,20.00
2018-05-29T08:04:05.699Z,20.00
2018-05-29T08:06:34.136Z,20.00
2018-05-29T08:09:02.586Z,20.10
2018-05-29T08:11:31.790Z,20.00
2018-05-29T08:14:00.265Z,20.10
2018-05-29T08:16:29.458Z,20.10
2018-05-29T08:18:58.694Z,20.10
2018-05-29T08:21:27.138Z,20.10
2018-05-29T08:23:57.317Z,20.30
2018-05-29T08:26:25.775Z,20.30
2018-05-29T08:28:54.220Z,20.30
2018-05-29T08:31:22.684Z,20.30
2018-05-29T08:33:52.886Z,20.40
2018-05-29T08:36:21.330Z,20.40
2018-05-29T08:39:09.108Z,20.50
2018-05-29T08:41:37.557Z,20.50
2018-05-29T08:44:06.753Z,20.60
2018-05-29T08:46:36.004Z,20.50
2018-05-29T08:49:05.200Z,20.60
2018-05-29T08:51:33.657Z,20.60
2018-05-29T08:54:02.101Z,20.60
2018-05-29T08:56:31.326Z,20.80
2018-05-29T08:58:59.765Z,20.80
2018-05-29T09:01:28.209Z,20.90
2018-05-29T09:03:56.692Z,21.00
2018-05-29T09:06:26.058Z,21.00
2018-05-29T09:08:54.518Z,21.00
2018-05-29T09:11:23.713Z,21.00
2018-05-29T09:13:52.941Z,20.90
2018-05-29T09:16:21.371Z,20.90
2018-05-29T09:18:50.593Z,21.20
2018-05-29T09:21:19.021Z,21.20
2018-05-29T09:23:47.481Z,21.10
2018-05-29T09:26:16.489Z,21.10
2018-05-29T09:28:45.626Z,21.20
2018-05-29T09:31:15.471Z,21.30
2018-05-29T09:33:43.919Z,21.30
2018-05-29T09:36:13.186Z,21.60
2018-05-29T09:38:41.661Z,21.50
2018-05-29T09:41:10.105Z,21.60
2018-05-29T09:43:38.568Z,21.50
2018-05-29T09:46:07.052Z,21.60
2018-05-29T09:48:35.497Z,21.60
2018-05-29T09:51:03.919Z,21.70
2018-05-29T09:53:32.386Z,21.70
2018-05-29T09:56:00.818Z,21.80
2018-05-29T09:58:29.477Z,21.70
2018-05-29T10:00:57.932Z,21.80
2018-05-29T10:03:26.367Z,21.90
2018-05-29T10:05:54.810Z,21.80
2018-05-29T10:08:23.255Z,22.00
2018-05-29T10:10:51.715Z,22.00
2018-05-29T10:13:20.905Z,21.90
2018-05-29T10:15:49.370Z,21.90
2018-05-29T10:18:17.803Z,21.90
2018-05-29T10:20:46.746Z,21.90
2018-05-29T10:23:15.877Z,21.90
2018-05-29T10:25:44.901Z,22.00
2018-05-29T10:28:13.570Z,22.00
2018-05-29T10:30:42.005Z,22.00
2018-05-29T10:33:11.220Z,22.20
2018-05-29T10:35:40.420Z,22.20
2018-05-29T10:38:08.868Z,22.20
2018-05-29T10:40:37.296Z,22.20
2018-05-29T10:43:05.772Z,22.20
2018-05-29T10:45:34.226Z,22.40
2018-05-29T10:48:03.455Z,22.40
2018-05-29T10:50:32.130Z,22.40
2018-05-29T10:53:00.547Z,22.30
2018-05-29T10:55:28.982Z,22.40
2018-05-29T10:57:57.441Z,22.40
2018-05-29T11:00:26.639Z,22.60
2018-05-29T11:02:55.854Z,22.70
2018-05-29T11:05:24.289Z,22.70
2018-05-29T11:07:52.733Z,22.70
2018-05-29T11:10:21.165Z,22.70
2018-05-29T11:12:50.415Z,22.50
2018-05-29T11:15:18.835Z,22.50
2018-05-29T11:17:48.032Z,22.40
2018-05-29T11:20:17.267Z,22.60
2018-05-29T11:22:46.616Z,22.60
2018-05-29T11:25:16.072Z,22.60
2018-05-29T11:27:44.527Z,22.70
2018-05-29T11:30:12.996Z,22.60
2018-05-29T11:32:42.196Z,22.60
2018-05-29T11:35:11.414Z,22.50
2018-05-29T11:37:39.861Z,22.50
2018-05-29T11:40:09.108Z,22.40
2018-05-29T11:42:37.583Z,22.40
2018-05-29T11:45:06.024Z,22.30
2018-05-29T11:47:35.262Z,22.30
2018-05-29T11:50:03.375Z,22.30
2018-05-29T11:52:31.859Z,22.30
2018-05-29T11:55:01.166Z,22.30
2018-05-29T11:57:29.784Z,22.30
2018-05-29T11:59:58.249Z,22.30
2018-05-29T12:02:26.455Z,22.30
2018-05-29T12:04:54.943Z,22.40
2018-05-29T12:07:23.050Z,22.40
2018-05-29T12:09:52.249Z,22.30
2018-05-29T12:12:26.513Z,22.30
2018-05-29T12:14:54.944Z,22.30
2018-05-29T12:17:24.161Z,22.50
2018-05-29T12:19:52.596Z,22.50
2018-05-29T12:22:21.092Z,22.40
2018-05-29T12:24:49.694Z,22.40
2018-05-29T12:27:18.166Z,22.40
2018-05-29T12:29:47.361Z,22.40
2018-05-29T12:32:16.992Z,22.30
2018-05-29T12:34:45.417Z,22.30
2018-05-29T12:37:14.265Z,22.40
2018-05-29T12:39:42.716Z,22.40
2018-05-29T12:42:11.944Z,22.40
2018-05-29T12:44:40.395Z,22.40
2018-05-29T12:47:08.860Z,22.50
2018-05-29T12:49:38.056Z,22.40
2018-05-29T12:52:07.269Z,22.40
2018-05-29T12:54:35.736Z,22.40
2018-05-29T12:57:04.996Z,22.50
2018-05-29T12:59:33.600Z,22.50
2018-05-29T13:02:02.040Z,22.50
2018-05-29T13:04:30.470Z,22.60
2018-05-29T13:06:59.701Z,22.50
2018-05-29T13:09:28.139Z,22.50
2018-05-29T13:11:57.370Z,22.60
2018-05-29T13:14:25.795Z,22.70
2018-05-29T13:16:54.262Z,22.60
2018-05-29T13:19:22.730Z,22.70
2018-05-29T13:21:51.186Z,22.70
2018-05-29T13:24:19.651Z,22.70
2018-05-29T13:26:49.043Z,22.70
2018-05-29T13:29:18.490Z,22.70
2018-05-29T13:31:47.723Z,22.70
2018-05-29T13:34:17.129Z,22.70
2018-05-29T13:36:46.443Z,22.80
2018-05-29T13:39:16.655Z,22.80
2018-05-29T13:41:45.789Z,22.80
2018-05-29T13:44:15.408Z,22.80
2018-05-29T13:46:43.526Z,22.80
2018-05-29T13:49:12.733Z,22.80
2018-05-29T13:51:42.149Z,22.80
2018-05-29T13:54:11.626Z,22.80
2018-05-29T13:56:40.848Z,22.70
2018-05-29T13:59:09.314Z,22.80
2018-05-29T14:01:38.531Z,22.80
2018-05-29T14:04:06.998Z,22.80
2018-05-29T14:41:16.833Z,22.80
2018-05-29T14:43:47.107Z,22.40
2018-05-29T14:46:15.728Z,22.40
2018-05-29T14:48:44.939Z,22.40
2018-05-29T14:51:13.409Z,22.40
2018-05-29T14:53:42.597Z,22.40
2018-05-29T14:56:11.815Z,22.40
2018-05-29T14:58:40.287Z,22.30
2018-05-29T15:01:08.921Z,22.40
2018-05-29T15:03:37.356Z,22.40
2018-05-29T15:06:05.790Z,22.50
2018-05-29T15:08:34.265Z,22.40
2018-05-29T15:11:02.729Z,22.30
2018-05-29T15:13:31.220Z,22.50
2018-05-29T15:15:59.657Z,22.30
2018-05-29T15:18:28.153Z,22.30
2018-05-29T15:20:57.186Z,22.30
2018-05-29T15:23:25.783Z,22.40
2018-05-29T15:25:55.593Z,22.40
2018-05-29T15:28:24.879Z,22.40
2018-05-29T15:30:53.337Z,22.40
2018-05-29T15:33:21.799Z,22.30
2018-05-29T15:35:51.195Z,22.20
2018-05-29T15:38:19.628Z,22.20
2018-05-29T15:40:49.062Z,22.10
2018-05-29T15:43:17.660Z,22.10
2018-05-29T15:45:46.097Z,22.10
2018-05-29T15:48:15.319Z,22.10
2018-05-29T15:50:43.756Z,22.10
2018-05-29T15:53:12.229Z,22.00
2018-05-29T15:55:40.651Z,22.00
2018-05-29T15:58:09.119Z,22.00
2018-05-29T16:00:37.245Z,21.90
2018-05-29T16:03:06.005Z,21.70
2018-05-29T16:05:34.476Z,21.70
2018-05-29T16:08:02.922Z,21.60
2018-05-29T16:10:32.154Z,21.60
2018-05-29T16:13:00.589Z,21.60
2018-05-29T16:15:29.806Z,21.60
2018-05-29T16:17:58.249Z,21.60
2018-05-29T16:20:26.711Z,21.60
2018-05-29T16:22:55.164Z,21.60
2018-05-29T16:25:23.616Z,21.70
2018-05-29T16:27:52.831Z,21.60
2018-05-29T16:30:21.285Z,21.60
2018-05-29T16:32:50.501Z,21.50
2018-05-29T16:35:18.933Z,21.60
2018-05-29T16:37:47.384Z,21.60
2018-05-29T16:40:15.844Z,21.60
2018-05-29T16:42:44.295Z,21.60
2018-05-29T16:45:13.491Z,21.70
2018-05-29T16:47:42.106Z,21.60
2018-05-29T16:50:10.526Z,21.60
2018-05-29T16:52:38.961Z,21.60
2018-05-29T16:55:07.414Z,21.80
2018-05-29T16:57:36.629Z,21.80
2018-05-29T17:00:04.754Z,21.80
2018-05-29T17:02:33.210Z,21.80
2018-05-29T17:05:01.652Z,20.90
2018-05-29T17:07:30.117Z,21.70
2018-05-29T17:09:59.311Z,21.70
2018-05-29T17:12:28.540Z,21.60
2018-05-29T17:14:56.972Z,21.60
2018-05-29T17:17:25.493Z,21.60
2018-05-29T17:19:53.944Z,21.60
2018-05-29T17:22:23.185Z,21.60
2018-05-29T17:24:51.635Z,21.50
2018-05-29T17:27:20.068Z,21.50
2018-05-29T17:29:48.509Z,21.50
2018-05-29T17:32:16.936Z,21.40
2018-05-29T17:34:45.401Z,21.50
2018-05-29T17:37:13.853Z,21.40
2018-05-29T17:39:42.318Z,21.50
2018-05-29T17:42:10.751Z,21.30
2018-05-29T17:44:39.188Z,21.40
2018-05-29T17:47:07.637Z,21.40
2018-05-29T17:49:36.915Z,21.30
2018-05-29T17:52:06.171Z,21.40
2018-05-29T17:54:34.622Z,21.30
2018-05-29T17:57:03.116Z,21.40
2018-05-29T17:59:31.566Z,21.40
2018-05-29T18:02:00.472Z,21.30
2018-05-29T18:04:28.970Z,21.30
2018-05-29T18:06:57.414Z,21.30
2018-05-29T18:09:26.635Z,21.30
2018-05-29T18:11:55.108Z,21.30
2018-05-29T18:14:23.572Z,21.30
2018-05-29T18:16:52.787Z,21.20
2018-05-29T18:19:21.224Z,21.20
2018-05-29T18:21:49.653Z,21.10
2018-05-29T18:24:18.074Z,21.20
2018-05-29T18:26:46.566Z,21.10
2018-05-29T18:29:15.132Z,21.00
2018-05-29T18:31:43.579Z,20.90
2018-05-29T18:34:12.019Z,20.90
2018-05-29T18:36:41.249Z,20.90
2018-05-29T18:39:09.727Z,20.90
2018-05-29T18:41:38.335Z,20.80
2018-05-29T18:44:06.761Z,20.80
2018-05-29T18:46:36.272Z,20.70
2018-05-29T18:49:04.774Z,20.70
2018-05-29T18:51:33.346Z,20.70
2018-05-29T18:54:01.781Z,20.60
2018-05-29T18:56:30.253Z,20.50
2018-05-29T18:58:58.699Z,20.50
2018-05-29T19:01:27.139Z,20.40
2018-05-29T19:03:56.365Z,20.40
2018-05-29T19:06:24.797Z,20.40
2018-05-29T19:08:53.280Z,20.40
2018-05-29T19:11:22.498Z,20.30
2018-05-29T19:13:50.941Z,20.30
2018-05-29T19:16:19.400Z,20.30
2018-05-29T19:18:47.875Z,20.20
2018-05-29T19:21:16.300Z,20.10
2018-05-29T19:23:45.493Z,20.00
2018-05-29T19:26:14.730Z,19.90
2018-05-29T19:28:43.194Z,19.80
2018-05-29T19:31:11.628Z,19.80
2018-05-29T19:33:40.058Z,19.80
2018-05-29T19:36:08.520Z,19.70
2018-05-29T19:38:36.613Z,19.70
2018-05-29T19:41:04.708Z,19.70
2018-05-29T19:43:33.914Z,19.60
2018-05-29T19:46:02.331Z,19.60
2018-05-29T19:48:30.780Z,19.60
2018-05-29T19:51:00.052Z,19.50
2018-05-29T19:53:29.557Z,19.50
2018-05-29T19:55:59.466Z,19.40
2018-05-29T19:58:29.097Z,19.40
2018-05-29T20:00:58.027Z,19.40
2018-05-29T20:03:31.288Z,19.20
2018-05-29T20:05:59.763Z,19.20
2018-05-29T20:08:28.208Z,19.20
2018-05-29T20:10:58.706Z,19.10
2018-05-29T20:13:27.745Z,19.00
2018-05-29T20:15:56.993Z,19.00
2018-05-29T20:18:25.434Z,19.00
2018-05-29T20:20:53.919Z,18.90
2018-05-29T20:23:22.356Z,18.90
2018-05-29T20:25:50.814Z,18.90
2018-05-29T20:28:19.269Z,18.90
2018-05-29T20:30:47.720Z,18.80
2018-05-29T20:33:16.195Z,18.60
2018-05-29T20:35:45.401Z,18.70
2018-05-29T20:38:13.856Z,18.70
2018-05-29T20:40:43.109Z,18.70
2018-05-29T20:43:11.566Z,18.60
2018-05-29T20:45:40.025Z,18.70
2018-05-29T20:48:09.291Z,18.60
2018-05-29T20:50:37.909Z,18.60
2018-05-29T20:53:06.062Z,18.60
2018-05-29T20:55:34.529Z,18.60
2018-05-29T20:58:02.967Z,18.60
2018-05-29T21:00:31.409Z,18.50
2018-05-29T21:03:00.630Z,18.50
2018-05-29T21:05:29.398Z,18.50
2018-05-29T21:07:59.416Z,18.40
2018-05-29T21:10:29.061Z,18.40
2018-05-29T21:12:58.124Z,18.30
2018-05-29T21:15:26.667Z,18.30
2018-05-29T21:17:55.287Z,18.30
2018-05-29T21:20:23.716Z,18.30
2018-05-29T21:22:52.180Z,18.30
2018-05-29T21:25:20.661Z,18.20
2018-05-29T21:27:49.106Z,18.20
2018-05-29T21:30:17.549Z,18.20
2018-05-29T21:32:46.738Z,18.10
2018-05-29T21:35:15.235Z,18.10
2018-05-29T21:37:43.801Z,18.10
2018-05-29T21:40:12.256Z,18.10
2018-05-29T21:42:40.684Z,16.00
2018-05-29T21:45:09.891Z,17.90
2018-05-29T21:47:38.332Z,17.90
2018-05-29T21:50:06.751Z,17.90
2018-05-29T21:52:35.220Z,18.00
2018-05-29T21:55:04.078Z,17.90
2018-05-29T21:57:32.518Z,17.90
2018-05-29T22:00:00.978Z,17.90
2018-05-29T22:02:29.795Z,17.90
2018-05-29T22:04:58.220Z,17.90
2018-05-29T22:07:27.662Z,17.80
2018-05-29T22:09:56.101Z,17.80
2018-05-29T22:12:25.314Z,17.80
2018-05-29T22:14:53.770Z,17.80
2018-05-29T22:17:22.991Z,17.80
2018-05-29T22:19:51.432Z,17.70
2018-05-29T22:22:19.851Z,17.80
2018-05-29T22:24:48.303Z,17.70
2018-05-29T22:27:17.496Z,17.80
2018-05-29T22:29:45.962Z,17.70
2018-05-29T22:32:14.393Z,17.70
2018-05-29T22:34:42.825Z,17.70
2018-05-29T22:37:11.312Z,17.60
2018-05-29T22:39:39.779Z,17.60
2018-05-29T22:42:08.045Z,17.40
2018-05-29T22:44:36.492Z,17.40
2018-05-29T22:47:04.936Z,17.50
2018-05-29T22:49:34.132Z,17.50
2018-05-29T22:52:03.336Z,17.50
2018-05-29T22:54:32.524Z,17.50
2018-05-29T22:57:01.732Z,17.40
2018-05-29T22:59:30.955Z,17.30
2018-05-29T23:01:59.400Z,17.30
2018-05-29T23:04:28.599Z,17.40
2018-05-29T23:06:57.815Z,17.40
2018-05-29T23:09:26.250Z,17.30
2018-05-29T23:11:54.700Z,17.40
2018-05-29T23:14:23.142Z,17.40
2018-05-29T23:16:51.588Z,17.40
2018-05-29T23:19:20.028Z,17.40
2018-05-29T23:21:48.453Z,17.40
2018-05-29T23:24:17.688Z,17.30
2018-05-29T23:26:46.151Z,17.30
2018-05-29T23:29:14.587Z,17.30
2018-05-29T23:31:43.083Z,17.30
2018-05-29T23:34:11.168Z,17.20
2018-05-29T23:36:40.962Z,17.10
2018-05-29T23:39:09.396Z,17.10
2018-05-29T23:41:38.180Z,17.10
2018-05-29T23:44:06.600Z,17.10
2018-05-29T23:46:35.126Z,17.10
2018-05-29T23:49:03.577Z,17.10
2018-05-29T23:51:32.788Z,17.10
2018-05-29T23:54:01.216Z,17.10
2018-05-29T23:56:29.807Z,17.10
2018-05-29T23:58:58.664Z,17.10
